NCAR-RAP Real-Time Weather Data

Output produced by METARs form (24 April 2018  16:11 UTC)
found at http://weather.rap.ucar.edu/surface/
 
RJCB 241100Z VRB02KT 9999 FEW015 SCT100 BKN/// 07/04 Q1016
RJCB 241000Z 15005KT 9999 FEW015 SCT030 BKN100 08/04 Q1016
RJCB 240900Z VRB02KT 9999 FEW015 BKN030 08/04 Q1016
RJCB 240800Z 12004KT 9999 FEW015 BKN030 09/04 Q1016
RJCB 240700Z 15004KT 100V200 9999 FEW020 SCT035 BKN/// 09/04 Q1016
RJCB 240600Z VRB02KT 9999 FEW015 BKN030 08/04 Q1017
RJCB 240500Z 02005KT 350V070 9999 SCT010 BKN014 08/05 Q1018
RJCB 240400Z VRB02KT 9999 FEW010 BKN012 BKN015 07/04 Q1019
RJCB 240300Z 07004KT 040V100 9999 FEW010 SCT012 BKN018 08/04 Q1019
RJCB 240200Z VRB02KT 9999 FEW010 BKN012 BKN015 07/03 Q1020
RJCB 240100Z VRB01KT 9999 FEW009 BKN012 06/03 Q1022
RJCB 240000Z VRB02KT 6000 -SHRA FEW009 BKN012 05/02 Q1022
RJCB 232300Z 34004KT 9999 FEW008 BKN012 BKN018 05/02 Q1023
RJCB 232240Z 34003KT 9999 FEW008 BKN010 BKN018 05/02 Q1023 RMK 1ST008 5ST010 7ST018 A3021
RJCB 231100Z 32004KT 280V350 9999 FEW040 BKN/// 05/01 Q1024
RJCB 231000Z 06004KT 9999 FEW040 BKN/// 06/01 Q1023
RJCB 230900Z 16006KT 9999 FEW040 BKN/// 08/01 Q1022
RJCB 230800Z 15009KT 9999 FEW040 BKN/// 10/M00 Q1022
RJCB 230700Z 17009KT 9999 FEW040 BKN/// 10/M00 Q1022
RJCB 230600Z 15014KT 9999 FEW040 BKN/// 10/01 Q1022
RJCB 230500Z 17011KT 140V220 9999 FEW040 BKN/// 11/00 Q1023
RJCB 230400Z 17009KT 140V210 9999 FEW040 BKN/// 12/M00 Q1023
RJCB 230300Z 16007KT 130V230 9999 FEW040 SCT/// 12/01 Q1024
RJCB 230200Z 14006KT 100V180 9999 FEW040 SCT/// 12/M00 Q1024
RJCB 230100Z VRB03KT 9999 FEW030 BKN/// 10/03 Q1025
RJCB 230000Z 13003KT 070V170 9999 FEW015 SCT/// 08/03 Q1026
RJCB 222300Z VRB02KT 9999 FEW006 SCT007 05/03 Q1026
RJCB 222240Z VRB01KT 9999 FEW006 BKN007 05/02 Q1026 RMK 1ST006 6ST007 A3032
RJCB 221100Z 16006KT 9999 FEW015 BKN/// 04/01 Q1024
RJCB 221030Z 17006KT 140V210 9999 FEW006 SCT009 BKN015 04/01 Q1023 RMK 1ST006 4ST009 6ST015 A3022
RJCB 221000Z 15009KT 8000 FEW006 BKN009 BKN012 05/02 Q1023
RJCB 220900Z 15011KT 9999 FEW020 BKN/// 05/02 Q1021
RJCB 220800Z 15010KT 9999 FEW040 BKN/// 08/02 Q1020
RJCB 220700Z 15014KT 9999 FEW040 BKN/// 08/02 Q1019
RJCB 220600Z 14016KT 9999 FEW030 BKN/// 09/02 Q1018
RJCB 220500Z 16016KT 9999 FEW030 SCT080 BKN/// 09/02 Q1018